Hlavní strana
METAR-TAF:

METAR-TAF

Letiště :

Longyearbyen, Norsko

Letiště Longyearbyen

zeměpisná šířka: 78-15N, zeměpisná délka: 015-28E, výška: 2 m

Aktuální stav počasí

Zpráva byla vytvořena před 36 minutami, v 08:50 UTC
Jihovýchodní vítr 14 kt
Teplota -2°C
Vlhkost vzduchu 69%
Tlak 1012 hPa
Viditelnost 10 km a více
Skoro jasno ve výšce 2000 ft
Zataženo ve výšce 6000 ft

METAR: ENSB 240850Z 13014KT 9999 FEW020 OVC060 M02/M07 Q1012 NOSIG RMK WIND 1400FT 13013KT

Čas: 10:26 (09:26 UTC)

Předpověď počasí

Předpověď platná od 24 v 06 UTC do 25 v 06 UTC
Východojihovýchodní vítr 8 kt
Viditelnost 10 km a více
Skoro jasno ve výšce 2500 ft
Polojasno ve výšce 5000 ft
Dočasný
od 24 v 06 UTC do 24 v 18 UTC
Jihovýchodní vítr 15 kt s nárazy do 25 kt

TAF: ENSB 2406/2506 12008KT 9999 FEW025 SCT050 TEMPO 2406/2418 13015G25KT

Stav a předpovědi počasí z více než 4 000 letišť (zprávy METAR a TAF).

Červené a žluté tečky na mapě představují dostupné meteorologické stanice.

Když kurzor umístíte na tečku, zobrazí se název stanice.

Pak kliknutím zobrazíte stav a předpověď počasí.

Chcete-li změnit mapu, kliknutím na zelené tlačítko se znaménkem +mapu přiblížíte, kliknutím na zelené tlačítko se znaménkem – mapu oddálíte a kliknutím na zelené šipky přejdete na sousední mapy.


METAR-TAF: